createdAt,value
2022-12-11T00:00:16.360Z,38.40
2022-12-11T00:01:24.150Z,27.60
2022-12-11T00:02:28.893Z,28.00
2022-12-11T00:03:59.656Z,23.40
2022-12-11T00:05:00.747Z,22.00
2022-12-11T00:05:51.780Z,24.80
2022-12-11T00:06:39.760Z,26.40
2022-12-11T00:07:31.904Z,28.80
2022-12-11T00:08:13.658Z,28.80
2022-12-11T00:09:00.565Z,26.40
2022-12-11T00:10:21.350Z,25.10
2022-12-11T00:11:39.871Z,25.50
2022-12-11T00:12:14.537Z,26.30
2022-12-11T00:13:31.124Z,26.50
2022-12-11T00:14:42.884Z,21.00
2022-12-11T00:15:38.581Z,24.50
2022-12-11T00:16:27.115Z,22.20
2022-12-11T00:17:38.886Z,26.10
2022-12-11T00:18:21.990Z,23.70
2022-12-11T00:19:40.595Z,23.00
2022-12-11T00:20:27.280Z,23.90
2022-12-11T00:21:52.622Z,21.30
2022-12-11T00:23:21.644Z,22.60
2022-12-11T00:24:24.101Z,24.10
2022-12-11T00:25:17.386Z,22.20
2022-12-11T00:27:26.077Z,21.30
2022-12-11T00:28:44.975Z,24.50
2022-12-11T00:29:42.345Z,19.60
2022-12-11T00:31:18.332Z,20.70
2022-12-11T00:32:32.644Z,19.10
2022-12-11T00:33:58.049Z,18.70
2022-12-11T00:36:25.511Z,21.50
2022-12-11T00:37:19.886Z,23.30
2022-12-11T00:38:39.211Z,19.60
2022-12-11T00:40:17.411Z,24.40
2022-12-11T00:41:15.108Z,20.90
2022-12-11T00:43:28.845Z,20.10
2022-12-11T00:44:11.665Z,21.50
2022-12-11T00:45:10.612Z,20.80
2022-12-11T00:46:11.135Z,23.30
2022-12-11T00:46:59.881Z,22.90
2022-12-11T00:47:47.827Z,21.50
2022-12-11T00:48:41.651Z,24.80
2022-12-11T00:50:20.945Z,23.10
2022-12-11T00:51:19.196Z,22.40
2022-12-11T00:52:17.193Z,23.00
2022-12-11T00:53:12.611Z,23.60
2022-12-11T00:54:18.605Z,21.10
2022-12-11T00:55:27.568Z,25.30
2022-12-11T00:56:23.941Z,23.80
2022-12-11T00:57:15.703Z,26.50
2022-12-11T00:58:01.723Z,23.00
2022-12-11T00:58:43.813Z,23.50
2022-12-11T00:59:41.908Z,26.30
2022-12-11T01:00:27.045Z,25.80
2022-12-11T01:01:27.828Z,24.90
2022-12-11T01:02:16.970Z,26.10
2022-12-11T01:03:30.852Z,20.40
2022-12-11T01:04:59.819Z,24.20
2022-12-11T01:07:08.817Z,25.20
2022-12-11T01:08:09.432Z,24.80
2022-12-11T01:09:29.405Z,21.30
2022-12-11T01:13:30.951Z,23.90
2022-12-11T01:14:33.003Z,25.40
2022-12-11T01:15:30.814Z,28.20
2022-12-11T01:16:31.908Z,26.40
2022-12-11T01:19:09.550Z,24.10
2022-12-11T01:19:53.659Z,30.20
2022-12-11T01:21:02.265Z,26.20
2022-12-11T01:23:30.598Z,24.20
2022-12-11T01:25:23.933Z,24.70
2022-12-11T01:26:43.292Z,25.90
2022-12-11T01:27:29.794Z,26.60
2022-12-11T01:28:22.217Z,26.10
2022-12-11T01:29:15.260Z,25.90
2022-12-11T01:30:28.263Z,26.60
2022-12-11T01:33:28.410Z,23.70
2022-12-11T01:35:17.039Z,25.70
2022-12-11T01:37:10.721Z,22.30
2022-12-11T01:38:21.868Z,27.20
2022-12-11T01:39:32.256Z,25.40
2022-12-11T01:42:23.374Z,23.40
2022-12-11T01:44:28.434Z,25.00
2022-12-11T01:46:00.842Z,24.40
2022-12-11T01:47:14.765Z,23.70
2022-12-11T01:48:42.098Z,26.40
2022-12-11T01:50:17.305Z,24.80
2022-12-11T01:51:15.443Z,22.90
2022-12-11T01:52:24.017Z,20.70
2022-12-11T01:54:13.832Z,27.30
2022-12-11T01:55:24.965Z,25.30
2022-12-11T01:56:46.738Z,23.00
2022-12-11T01:58:16.477Z,26.00
2022-12-11T01:59:16.275Z,25.80
2022-12-11T02:00:10.680Z,24.70
2022-12-11T02:00:57.145Z,25.30
2022-12-11T02:02:22.165Z,27.80
2022-12-11T02:03:40.089Z,25.20
2022-12-11T02:05:00.075Z,25.40
2022-12-11T02:09:14.289Z,22.60
2022-12-11T02:10:14.020Z,27.20
2022-12-11T02:11:19.576Z,26.90
2022-12-11T02:12:14.752Z,24.40
2022-12-11T02:13:06.666Z,28.30
2022-12-11T02:14:09.251Z,26.10
2022-12-11T02:15:20.206Z,24.00
2022-12-11T02:16:17.568Z,27.80
2022-12-11T02:17:07.150Z,27.30
2022-12-11T02:18:02.202Z,25.20
2022-12-11T02:19:09.890Z,24.80
2022-12-11T02:19:54.161Z,22.60
2022-12-11T02:20:41.831Z,25.80
2022-12-11T02:21:26.111Z,24.00
2022-12-11T02:22:21.237Z,26.90
2022-12-11T02:23:23.120Z,25.80
2022-12-11T02:24:47.505Z,22.70
2022-12-11T02:25:42.234Z,26.80
2022-12-11T02:26:30.083Z,25.20
2022-12-11T02:27:38.675Z,24.90
2022-12-11T02:28:43.419Z,23.60
2022-12-11T02:29:29.790Z,25.00
2022-12-11T02:30:12.426Z,25.50
2022-12-11T02:31:10.884Z,25.30
2022-12-11T02:32:07.139Z,27.50
2022-12-11T02:33:05.189Z,24.70
2022-12-11T02:34:04.558Z,24.30
2022-12-11T02:34:49.114Z,25.30
2022-12-11T02:35:44.766Z,26.20
2022-12-11T02:36:26.441Z,28.80
2022-12-11T02:37:15.333Z,29.60
2022-12-11T02:38:02.128Z,29.70
2022-12-11T02:39:42.707Z,26.70
2022-12-11T02:40:24.308Z,28.80
2022-12-11T02:41:16.286Z,28.60
2022-12-11T02:42:03.779Z,30.60
2022-12-11T02:42:47.277Z,28.90
2022-12-11T02:43:42.617Z,28.60
2022-12-11T02:44:23.689Z,29.40
2022-12-11T02:45:08.101Z,29.50
2022-12-11T02:45:50.800Z,27.60
2022-12-11T02:46:31.125Z,29.30
2022-12-11T02:47:16.275Z,27.50
2022-12-11T02:48:04.669Z,27.60
2022-12-11T02:48:43.349Z,29.00
2022-12-11T02:51:46.916Z,30.20
2022-12-11T02:52:23.811Z,27.70
2022-12-11T02:53:11.303Z,29.90
2022-12-11T02:53:54.797Z,30.10
2022-12-11T02:54:37.521Z,27.40
2022-12-11T02:55:18.512Z,29.00
2022-12-11T02:56:02.548Z,25.90
2022-12-11T02:56:49.266Z,28.50
2022-12-11T02:57:56.070Z,26.00
2022-12-11T02:58:45.988Z,26.80
2022-12-11T02:59:26.664Z,27.20
2022-12-11T03:00:06.735Z,28.20
2022-12-11T03:00:47.383Z,31.20
2022-12-11T03:01:26.657Z,28.30
2022-12-11T03:02:09.849Z,28.10
2022-12-11T03:02:47.262Z,29.10
2022-12-11T03:03:30.934Z,29.10
2022-12-11T03:04:13.488Z,27.90
2022-12-11T03:04:47.884Z,29.20
2022-12-11T03:05:21.818Z,30.50
2022-12-11T03:06:00.384Z,27.50
2022-12-11T03:06:42.875Z,30.90
2022-12-11T03:07:25.347Z,28.10
2022-12-11T03:08:08.194Z,26.30
2022-12-11T03:08:41.923Z,26.70
2022-12-11T03:09:21.993Z,27.40
2022-12-11T03:09:58.547Z,29.10
2022-12-11T03:10:38.866Z,28.80
2022-12-11T03:12:01.884Z,27.00
2022-12-11T03:13:47.775Z,25.50
2022-12-11T03:14:21.536Z,28.50
2022-12-11T03:14:59.245Z,28.20
2022-12-11T03:16:12.642Z,27.20
2022-12-11T03:16:58.558Z,27.80
2022-12-11T03:17:45.008Z,29.40
2022-12-11T03:18:23.589Z,26.10
2022-12-11T03:19:22.575Z,28.80
2022-12-11T03:20:19.547Z,26.60
2022-12-11T03:21:22.611Z,24.90
2022-12-11T03:22:12.057Z,26.40
2022-12-11T03:23:18.162Z,28.90
2022-12-11T03:24:19.193Z,26.00
2022-12-11T03:25:23.614Z,26.40
2022-12-11T03:26:10.981Z,28.30
2022-12-11T03:27:12.413Z,28.10
2022-12-11T03:28:14.384Z,28.80
2022-12-11T03:29:18.355Z,28.20
2022-12-11T03:30:21.784Z,29.10
2022-12-11T03:30:57.119Z,27.40
2022-12-11T03:31:46.811Z,29.40
2022-12-11T03:32:29.834Z,29.70
2022-12-11T03:33:20.920Z,28.50
2022-12-11T03:34:16.502Z,32.30
2022-12-11T03:35:08.775Z,30.20
2022-12-11T03:35:56.667Z,29.10
2022-12-11T03:36:46.210Z,32.40
2022-12-11T03:37:23.397Z,30.60
2022-12-11T03:38:04.973Z,27.90
2022-12-11T03:39:55.486Z,30.00
2022-12-11T03:40:46.301Z,30.20
2022-12-11T03:41:25.311Z,32.60
2022-12-11T03:42:02.718Z,31.20
2022-12-11T03:42:47.944Z,32.20
2022-12-11T03:43:25.233Z,29.50
2022-12-11T03:45:00.860Z,33.20
2022-12-11T03:45:39.463Z,32.70
2022-12-11T03:45:42.340Z,29.20
2022-12-11T03:46:23.539Z,30.20
2022-12-11T03:47:03.553Z,29.50
2022-12-11T03:47:44.581Z,31.40
2022-12-11T03:48:21.190Z,30.50
2022-12-11T03:48:59.583Z,31.70
2022-12-11T03:49:42.097Z,29.10
2022-12-11T03:50:18.972Z,29.60
2022-12-11T03:50:53.005Z,30.50
2022-12-11T03:51:31.916Z,31.70
2022-12-11T03:52:13.091Z,29.00
2022-12-11T03:52:48.082Z,30.80
2022-12-11T03:53:22.431Z,31.70
2022-12-11T03:53:57.953Z,30.50
2022-12-11T03:54:32.064Z,31.00
2022-12-11T03:55:13.821Z,30.60
2022-12-11T03:55:50.397Z,33.20
2022-12-11T03:56:29.085Z,32.00
2022-12-11T03:57:05.576Z,31.40
2022-12-11T03:57:42.103Z,31.60
2022-12-11T03:58:21.333Z,33.80
2022-12-11T03:58:57.779Z,31.20
2022-12-11T03:59:34.780Z,31.00
2022-12-11T04:00:16.795Z,32.40
2022-12-11T04:00:50.524Z,30.60
2022-12-11T04:01:24.241Z,32.30
2022-12-11T04:01:57.918Z,34.30
2022-12-11T04:02:31.689Z,33.40
2022-12-11T04:03:14.438Z,31.70
2022-12-11T04:03:48.161Z,32.10
2022-12-11T04:04:21.680Z,32.50
2022-12-11T04:04:55.088Z,35.10
2022-12-11T04:05:28.459Z,33.10
2022-12-11T04:06:01.904Z,32.30
2022-12-11T04:06:38.416Z,33.50
2022-12-11T04:07:11.929Z,30.60
2022-12-11T04:07:46.823Z,31.00
2022-12-11T04:08:24.602Z,31.00
2022-12-11T04:09:01.454Z,31.60
2022-12-11T04:09:38.001Z,31.00
2022-12-11T04:10:11.693Z,30.80
2022-12-11T04:10:45.254Z,32.00
2022-12-11T04:11:39.663Z,32.10
2022-12-11T04:12:14.934Z,30.30
2022-12-11T04:13:07.659Z,29.00
2022-12-11T04:14:34.040Z,28.10
2022-12-11T04:15:11.490Z,26.50
2022-12-11T04:15:49.553Z,29.60
2022-12-11T04:16:23.182Z,27.00
2022-12-11T04:16:57.852Z,28.50
2022-12-11T04:17:55.581Z,28.20
2022-12-11T04:18:50.775Z,27.10
2022-12-11T04:19:44.759Z,26.80
2022-12-11T04:20:39.143Z,28.00
2022-12-11T04:21:36.367Z,28.00
2022-12-11T04:22:38.428Z,26.30
2022-12-11T04:23:32.958Z,26.70
2022-12-11T04:24:15.491Z,25.60
2022-12-11T04:24:50.377Z,23.90
2022-12-11T04:25:23.890Z,29.40
2022-12-11T04:26:21.351Z,28.40
2022-12-11T04:26:54.787Z,25.00
2022-12-11T04:27:46.974Z,26.20
2022-12-11T04:28:22.299Z,27.60
2022-12-11T04:28:55.731Z,29.60
2022-12-11T04:29:29.124Z,28.80
2022-12-11T04:30:11.156Z,29.40
2022-12-11T04:30:50.870Z,29.20
2022-12-11T04:31:24.673Z,28.80
2022-12-11T04:31:58.213Z,28.40
2022-12-11T04:32:34.158Z,30.70
2022-12-11T04:33:07.664Z,30.90
2022-12-11T04:33:41.743Z,29.60
2022-12-11T04:34:15.091Z,28.70
2022-12-11T04:34:48.509Z,30.60
2022-12-11T04:35:22.600Z,29.50
2022-12-11T04:35:58.915Z,30.90
2022-12-11T04:36:32.281Z,29.20
2022-12-11T04:37:08.635Z,31.20
2022-12-11T04:37:42.124Z,30.50
2022-12-11T04:38:17.014Z,32.20
2022-12-11T04:38:54.024Z,30.60
2022-12-11T04:39:33.031Z,31.20
2022-12-11T04:40:09.874Z,27.30
2022-12-11T04:40:43.764Z,28.70
2022-12-11T04:41:18.132Z,29.60
2022-12-11T04:41:51.800Z,29.40
2022-12-11T04:42:25.587Z,27.30
2022-12-11T04:43:01.546Z,31.40
2022-12-11T04:43:42.034Z,29.10
2022-12-11T04:44:18.045Z,27.50
2022-12-11T04:44:58.379Z,27.60
2022-12-11T04:45:31.975Z,26.50
2022-12-11T04:46:16.713Z,29.00
2022-12-11T04:46:51.008Z,26.70
2022-12-11T04:47:29.009Z,27.50
2022-12-11T04:48:05.873Z,29.30
2022-12-11T04:48:45.707Z,27.10
2022-12-11T04:49:21.498Z,26.50
2022-12-11T04:49:57.743Z,27.20
2022-12-11T04:50:45.492Z,29.30
2022-12-11T04:51:20.183Z,28.40
2022-12-11T04:51:54.033Z,29.30
2022-12-11T04:52:31.672Z,28.60
2022-12-11T04:53:05.248Z,28.20
2022-12-11T04:53:41.441Z,25.00
2022-12-11T04:54:16.844Z,27.00
2022-12-11T04:54:55.320Z,28.50
2022-12-11T04:55:39.959Z,28.20
2022-12-11T04:56:19.708Z,28.80
2022-12-11T04:56:54.662Z,25.50
2022-12-11T04:57:32.881Z,25.50
2022-12-11T04:58:12.133Z,29.90
2022-12-11T04:58:46.398Z,27.70
2022-12-11T04:59:19.916Z,26.30
2022-12-11T05:00:01.504Z,26.40
2022-12-11T05:00:43.553Z,26.10
2022-12-11T05:01:23.978Z,27.60
2022-12-11T05:02:01.856Z,25.90
2022-12-11T05:02:40.206Z,28.50
2022-12-11T05:03:23.980Z,27.30
2022-12-11T05:04:02.703Z,30.30
2022-12-11T05:04:40.404Z,26.90
2022-12-11T05:05:17.317Z,25.90
2022-12-11T05:05:52.758Z,27.20
2022-12-11T05:06:43.508Z,25.90
2022-12-11T05:07:26.145Z,25.20
2022-12-11T05:08:02.569Z,25.80
2022-12-11T05:08:40.616Z,26.30
2022-12-11T05:09:17.262Z,27.60
2022-12-11T05:09:52.803Z,26.50
2022-12-11T05:10:26.873Z,27.80
2022-12-11T05:11:04.929Z,25.70
2022-12-11T05:11:41.036Z,25.00
2022-12-11T05:12:14.763Z,25.90
2022-12-11T05:12:54.883Z,24.90
2022-12-11T05:13:31.375Z,25.00
2022-12-11T05:14:08.036Z,26.00
2022-12-11T05:14:43.156Z,27.70
2022-12-11T05:15:17.395Z,25.40
2022-12-11T05:15:53.720Z,24.50
2022-12-11T05:16:34.658Z,23.30
2022-12-11T05:17:09.180Z,24.30
2022-12-11T05:17:42.761Z,25.50
2022-12-11T05:18:16.358Z,26.30
2022-12-11T05:18:50.100Z,24.20
2022-12-11T05:19:23.806Z,25.70
2022-12-11T05:20:00.090Z,25.80
2022-12-11T05:20:39.992Z,25.10
2022-12-11T05:21:15.298Z,25.70
2022-12-11T05:21:48.930Z,26.50
2022-12-11T05:22:22.667Z,23.70
2022-12-11T05:24:00.159Z,24.50
2022-12-11T05:24:33.571Z,23.30
2022-12-11T05:25:11.284Z,25.00
2022-12-11T05:25:52.634Z,23.60
2022-12-11T05:26:29.614Z,25.60
2022-12-11T05:27:07.582Z,26.50
2022-12-11T05:27:41.254Z,26.00
2022-12-11T05:28:14.861Z,24.20
2022-12-11T05:28:55.395Z,25.30
2022-12-11T05:29:29.066Z,24.90
2022-12-11T05:30:09.967Z,24.30
2022-12-11T05:31:23.437Z,21.50
2022-12-11T05:31:57.116Z,24.60
2022-12-11T05:32:31.039Z,26.90
2022-12-11T05:33:10.220Z,24.10
2022-12-11T05:33:47.989Z,21.10
2022-12-11T05:34:21.680Z,23.00
2022-12-11T05:35:04.153Z,22.70
2022-12-11T05:35:40.064Z,22.60
2022-12-11T05:36:19.238Z,23.80
2022-12-11T05:36:56.338Z,23.30
2022-12-11T05:37:33.646Z,22.70
2022-12-11T05:38:12.119Z,24.20
2022-12-11T05:38:46.920Z,22.70
2022-12-11T05:39:24.172Z,24.90
2022-12-11T05:40:00.234Z,24.50
2022-12-11T05:40:37.637Z,24.00
2022-12-11T05:41:14.728Z,24.00
2022-12-11T05:41:49.549Z,22.00
2022-12-11T05:42:43.112Z,23.00
2022-12-11T05:43:21.108Z,21.50
2022-12-11T05:43:57.558Z,22.20
2022-12-11T05:44:33.829Z,22.40
2022-12-11T05:45:10.704Z,21.30
2022-12-11T05:45:46.119Z,21.30
2022-12-11T05:46:22.796Z,21.10
2022-12-11T05:46:59.979Z,21.10
2022-12-11T05:47:35.984Z,20.10
2022-12-11T05:48:12.315Z,21.40
2022-12-11T05:48:47.603Z,21.50
2022-12-11T05:49:30.510Z,21.10
2022-12-11T05:50:06.311Z,19.70
2022-12-11T05:51:05.602Z,20.40
2022-12-11T05:51:39.977Z,20.00
2022-12-11T05:52:16.820Z,20.60
2022-12-11T05:53:09.544Z,21.20
2022-12-11T05:53:47.349Z,20.70
2022-12-11T05:54:21.899Z,21.00
2022-12-11T05:55:00.052Z,20.00
2022-12-11T05:55:39.594Z,19.80
2022-12-11T05:56:16.941Z,22.20
2022-12-11T05:57:01.283Z,22.10
2022-12-11T05:57:34.953Z,19.80
2022-12-11T05:58:09.979Z,20.60
2022-12-11T05:58:48.098Z,22.30
2022-12-11T05:59:21.743Z,21.10
2022-12-11T05:59:55.495Z,20.10
2022-12-11T06:00:36.053Z,18.60
2022-12-11T06:01:20.424Z,20.80
2022-12-11T06:01:56.634Z,19.60
2022-12-11T06:02:33.820Z,18.80
2022-12-11T06:03:14.960Z,18.90
2022-12-11T06:03:48.878Z,19.20
2022-12-11T06:04:22.750Z,20.20
2022-12-11T06:05:02.022Z,20.20
2022-12-11T06:06:15.660Z,19.40
2022-12-11T06:06:49.029Z,20.00
2022-12-11T06:07:22.492Z,19.10
2022-12-11T06:07:58.809Z,19.60
2022-12-11T06:08:36.044Z,20.40
2022-12-11T06:09:17.257Z,17.50
2022-12-11T06:09:51.004Z,18.90
2022-12-11T06:10:35.182Z,19.50
2022-12-11T06:11:19.558Z,20.20
2022-12-11T06:11:55.989Z,18.50
2022-12-11T06:12:30.130Z,19.30
2022-12-11T06:13:06.760Z,21.90
2022-12-11T06:13:48.054Z,20.20
2022-12-11T06:14:24.187Z,20.10
2022-12-11T06:14:59.963Z,19.50
2022-12-11T06:15:33.364Z,19.70
2022-12-11T06:16:10.163Z,18.40
2022-12-11T06:16:45.850Z,19.90
2022-12-11T06:17:19.374Z,18.50
2022-12-11T06:17:53.373Z,20.10
2022-12-11T06:18:30.255Z,18.60
2022-12-11T06:19:04.469Z,17.80
2022-12-11T06:19:44.035Z,19.60
2022-12-11T06:20:18.728Z,17.20
2022-12-11T06:20:58.184Z,19.00
2022-12-11T06:21:33.369Z,18.30
2022-12-11T06:22:09.458Z,18.50
2022-12-11T06:22:43.139Z,18.00
2022-12-11T06:23:16.768Z,18.80
2022-12-11T06:23:57.166Z,18.50
2022-12-11T06:24:33.050Z,19.30
2022-12-11T06:25:07.097Z,19.40
2022-12-11T06:25:40.914Z,19.70
2022-12-11T06:26:17.655Z,20.30
2022-12-11T06:26:54.103Z,18.40
2022-12-11T06:27:27.729Z,17.10
2022-12-11T06:28:01.421Z,19.00
2022-12-11T06:28:35.149Z,20.90
2022-12-11T06:29:12.520Z,17.70
2022-12-11T06:29:47.123Z,18.40
2022-12-11T06:30:21.568Z,17.90
2022-12-11T06:30:55.234Z,19.10
2022-12-11T06:31:28.822Z,18.90
2022-12-11T06:32:02.525Z,18.10
2022-12-11T06:32:43.274Z,18.50
2022-12-11T06:33:16.900Z,18.50
2022-12-11T06:33:50.852Z,15.10
2022-12-11T06:34:24.653Z,17.20
2022-12-11T06:35:06.158Z,18.20
2022-12-11T06:35:42.338Z,18.20
2022-12-11T06:36:19.931Z,18.70
2022-12-11T06:36:58.971Z,20.10
2022-12-11T06:37:32.489Z,18.50
2022-12-11T06:38:08.197Z,17.80
2022-12-11T06:38:43.976Z,16.30
2022-12-11T06:39:24.336Z,20.00
2022-12-11T06:39:58.020Z,17.10
2022-12-11T06:40:31.424Z,16.00
2022-12-11T06:41:09.222Z,18.90
2022-12-11T06:41:42.739Z,17.50
2022-12-11T06:42:17.765Z,17.10
2022-12-11T06:42:51.308Z,19.00
2022-12-11T06:43:25.403Z,20.50
2022-12-11T06:44:00.415Z,18.40
2022-12-11T06:44:39.131Z,18.30
2022-12-11T06:45:12.891Z,19.30
2022-12-11T06:45:48.407Z,19.00
2022-12-11T06:46:21.958Z,19.50
2022-12-11T06:46:55.565Z,21.30
2022-12-11T06:47:30.435Z,21.60
2022-12-11T06:48:04.616Z,18.30
2022-12-11T06:48:45.173Z,19.30
2022-12-11T06:49:19.752Z,20.20
2022-12-11T06:50:08.375Z,17.80
2022-12-11T06:50:43.493Z,18.90
2022-12-11T06:51:21.963Z,18.10
2022-12-11T06:51:55.468Z,18.00
2022-12-11T06:52:29.343Z,18.30
2022-12-11T06:53:03.007Z,18.70
2022-12-11T06:53:36.927Z,20.10
2022-12-11T06:54:10.346Z,18.50
2022-12-11T06:54:45.033Z,20.80
2022-12-11T06:55:18.875Z,18.40
2022-12-11T06:55:52.473Z,21.80
2022-12-11T06:56:27.180Z,20.10
2022-12-11T06:57:00.566Z,21.70
2022-12-11T06:57:34.708Z,18.80
2022-12-11T06:58:11.859Z,21.10
2022-12-11T06:58:45.429Z,20.70
2022-12-11T06:59:19.235Z,18.80
2022-12-11T06:59:54.850Z,19.70
2022-12-11T07:00:28.424Z,20.90
2022-12-11T07:01:05.224Z,20.60
2022-12-11T07:01:41.229Z,21.00
2022-12-11T07:02:19.550Z,20.10
2022-12-11T07:02:56.636Z,21.30
2022-12-11T07:03:47.051Z,20.60
2022-12-11T07:04:21.736Z,19.60
2022-12-11T07:04:57.302Z,20.60
2022-12-11T07:05:33.212Z,19.60
2022-12-11T07:06:10.240Z,19.00
2022-12-11T07:06:44.635Z,20.90
2022-12-11T07:07:22.868Z,19.90
2022-12-11T07:07:56.336Z,19.70
2022-12-11T07:08:30.394Z,19.70
2022-12-11T07:09:14.258Z,20.90
2022-12-11T07:09:47.783Z,21.90
2022-12-11T07:10:24.088Z,20.50
2022-12-11T07:11:11.847Z,21.50
2022-12-11T07:12:00.182Z,14.10
2022-12-11T07:12:37.810Z,17.80
2022-12-11T07:13:11.574Z,18.40
2022-12-11T07:13:45.279Z,18.00
2022-12-11T07:14:19.213Z,18.90
2022-12-11T07:14:52.765Z,16.70
2022-12-11T07:15:28.676Z,16.80
2022-12-11T07:16:11.230Z,21.00
2022-12-11T07:16:47.911Z,18.00
2022-12-11T07:17:23.507Z,18.00
2022-12-11T07:17:57.082Z,19.70
2022-12-11T07:18:32.488Z,19.00
2022-12-11T07:19:10.403Z,18.40
2022-12-11T07:19:53.878Z,17.70
2022-12-11T07:20:31.387Z,17.10
2022-12-11T07:21:05.978Z,18.60
2022-12-11T07:21:42.325Z,18.40
2022-12-11T07:22:17.014Z,17.60
2022-12-11T07:22:50.650Z,18.60
2022-12-11T07:23:24.433Z,20.30
2022-12-11T07:23:57.962Z,19.60
2022-12-11T07:24:31.408Z,19.70
2022-12-11T07:25:05.230Z,19.10
2022-12-11T07:25:38.639Z,17.70
2022-12-11T07:26:14.834Z,19.70
2022-12-11T07:26:48.460Z,21.60
2022-12-11T07:27:21.963Z,19.60
2022-12-11T07:27:55.473Z,20.00
2022-12-11T07:28:28.903Z,19.80
2022-12-11T07:29:02.298Z,21.30
2022-12-11T07:29:35.749Z,18.30
2022-12-11T07:30:10.844Z,19.30
2022-12-11T07:30:44.595Z,19.50
2022-12-11T07:31:26.347Z,20.90
2022-12-11T07:32:02.186Z,20.30
2022-12-11T07:32:39.057Z,21.00
2022-12-11T07:33:12.501Z,21.10
2022-12-11T07:33:46.623Z,22.60
2022-12-11T07:34:20.077Z,22.50
2022-12-11T07:34:53.604Z,19.40
2022-12-11T07:35:30.081Z,19.70
2022-12-11T07:36:11.069Z,21.00
2022-12-11T07:36:47.642Z,20.70
2022-12-11T07:37:21.169Z,22.50
2022-12-11T07:37:54.619Z,21.40
2022-12-11T07:38:28.397Z,20.60
2022-12-11T07:39:08.694Z,21.20
2022-12-11T07:39:44.674Z,21.00
2022-12-11T07:40:21.089Z,20.80
2022-12-11T07:40:54.796Z,24.10
2022-12-11T07:41:29.074Z,22.20
2022-12-11T07:42:13.235Z,21.50
2022-12-11T07:42:49.158Z,20.20
2022-12-11T07:43:25.547Z,21.00
2022-12-11T07:44:00.120Z,20.70
2022-12-11T07:44:38.493Z,20.10
2022-12-11T07:45:15.249Z,20.00
2022-12-11T07:45:48.902Z,20.80
2022-12-11T07:46:28.985Z,19.30
2022-12-11T07:47:02.720Z,20.00
2022-12-11T07:47:38.159Z,19.80
2022-12-11T07:48:14.007Z,20.70
2022-12-11T07:48:50.853Z,22.00
2022-12-11T07:49:25.836Z,22.80
2022-12-11T07:49:59.627Z,21.90
2022-12-11T07:50:39.725Z,21.30
2022-12-11T07:51:28.135Z,20.30
2022-12-11T07:52:41.461Z,19.40
2022-12-11T07:53:15.271Z,21.70
2022-12-11T07:53:53.600Z,20.80
2022-12-11T07:54:29.420Z,21.10
2022-12-11T07:55:05.810Z,21.30
2022-12-11T07:55:40.948Z,20.70
2022-12-11T07:56:18.679Z,20.90
2022-12-11T07:56:56.829Z,20.20
2022-12-11T07:57:30.497Z,19.50
2022-12-11T07:58:04.135Z,18.50
2022-12-11T07:58:46.399Z,18.40
2022-12-11T07:59:21.311Z,22.10
2022-12-11T07:59:55.837Z,21.10
2022-12-11T08:00:35.078Z,20.60
2022-12-11T08:01:22.933Z,19.70
2022-12-11T08:02:00.970Z,19.30
2022-12-11T08:02:39.592Z,18.40
2022-12-11T08:03:18.006Z,18.00
2022-12-11T08:03:53.423Z,19.30
2022-12-11T08:04:30.617Z,19.70
2022-12-11T08:05:09.267Z,19.40
2022-12-11T08:05:53.083Z,19.70
2022-12-11T08:06:31.033Z,18.20
2022-12-11T08:07:08.293Z,20.10
2022-12-11T08:07:44.615Z,19.30
2022-12-11T08:08:19.803Z,18.60
2022-12-11T08:08:58.205Z,17.90
2022-12-11T08:09:32.058Z,19.00
2022-12-11T08:10:13.419Z,19.10
2022-12-11T08:10:48.180Z,19.60
2022-12-11T08:11:21.760Z,19.80
2022-12-11T08:11:57.985Z,19.80
2022-12-11T08:12:31.979Z,18.80
2022-12-11T08:13:12.026Z,18.10
2022-12-11T08:13:45.980Z,21.00
2022-12-11T08:14:20.604Z,19.20
2022-12-11T08:14:56.026Z,18.80
2022-12-11T08:15:31.559Z,18.40
2022-12-11T08:16:15.010Z,18.20
2022-12-11T08:16:49.202Z,17.90
2022-12-11T08:17:28.754Z,17.60
2022-12-11T08:18:06.132Z,19.00
2022-12-11T08:18:41.009Z,17.40
2022-12-11T08:19:15.125Z,17.60
2022-12-11T08:19:48.719Z,17.50
2022-12-11T08:20:22.187Z,18.10
2022-12-11T08:20:55.592Z,18.40
2022-12-11T08:21:29.617Z,18.50
2022-12-11T08:22:03.444Z,17.20
2022-12-11T08:22:40.051Z,18.10
2022-12-11T08:23:13.644Z,16.60
2022-12-11T08:23:48.267Z,15.70
2022-12-11T08:24:22.035Z,18.80
2022-12-11T08:24:59.926Z,15.60
2022-12-11T08:25:36.391Z,15.00
2022-12-11T08:26:16.136Z,14.80
2022-12-11T08:26:49.561Z,16.50
2022-12-11T08:27:23.084Z,16.20
2022-12-11T08:27:56.543Z,17.00
2022-12-11T08:28:30.129Z,16.50
2022-12-11T08:29:04.196Z,15.20
2022-12-11T08:29:39.403Z,17.50
2022-12-11T08:30:13.172Z,15.80
2022-12-11T08:30:46.584Z,15.50
2022-12-11T08:31:21.210Z,17.80
2022-12-11T08:31:54.815Z,17.80
2022-12-11T08:32:28.139Z,15.10
2022-12-11T08:33:01.499Z,16.20
2022-12-11T08:33:36.607Z,15.40
2022-12-11T08:34:14.058Z,15.70
2022-12-11T08:34:47.878Z,17.10
2022-12-11T08:35:21.795Z,18.90
2022-12-11T08:35:55.362Z,17.50
2022-12-11T08:36:28.727Z,18.70
2022-12-11T08:37:02.647Z,19.10
2022-12-11T08:37:40.503Z,18.90
2022-12-11T08:38:19.642Z,17.70
2022-12-11T08:38:58.602Z,17.30
2022-12-11T08:39:32.301Z,15.60
2022-12-11T08:40:06.891Z,17.10
2022-12-11T08:40:40.563Z,15.70
2022-12-11T08:41:16.896Z,16.00
2022-12-11T08:41:50.580Z,16.50
2022-12-11T08:42:24.481Z,18.90
2022-12-11T08:43:01.354Z,17.30
2022-12-11T08:43:45.288Z,16.90
2022-12-11T08:44:20.083Z,17.00
2022-12-11T08:44:53.743Z,17.30
2022-12-11T08:45:29.545Z,17.80
2022-12-11T08:46:05.212Z,17.40
2022-12-11T08:46:44.051Z,16.80
2022-12-11T08:47:18.180Z,15.20
2022-12-11T08:47:52.016Z,15.70
2022-12-11T08:48:25.939Z,17.50
2022-12-11T08:49:00.632Z,16.50
2022-12-11T08:49:34.710Z,15.90
2022-12-11T08:50:16.066Z,14.20
2022-12-11T08:50:49.497Z,15.10
2022-12-11T08:51:26.363Z,15.20
2022-12-11T08:52:00.000Z,16.50
2022-12-11T08:52:37.741Z,15.10
2022-12-11T08:53:13.566Z,15.10
2022-12-11T08:53:47.282Z,14.10
2022-12-11T08:54:20.620Z,13.50
2022-12-11T08:54:56.291Z,14.40
2022-12-11T08:55:29.940Z,13.00
2022-12-11T08:56:06.048Z,14.30
2022-12-11T08:56:42.407Z,12.80
2022-12-11T08:57:15.985Z,14.20
2022-12-11T08:57:49.652Z,13.10
2022-12-11T08:58:23.194Z,14.70
2022-12-11T08:58:56.901Z,14.90
2022-12-11T08:59:30.425Z,13.60
2022-12-11T09:00:05.758Z,14.80
2022-12-11T09:00:41.605Z,14.10
2022-12-11T09:01:21.833Z,14.30
2022-12-11T09:01:56.401Z,13.50
2022-12-11T09:02:29.903Z,13.50
2022-12-11T09:03:11.218Z,14.90
2022-12-11T09:03:46.403Z,15.90
2022-12-11T09:04:19.812Z,15.70
2022-12-11T09:04:53.299Z,16.40
2022-12-11T09:05:27.307Z,15.60
2022-12-11T09:06:00.861Z,14.80
2022-12-11T09:06:34.387Z,14.90
2022-12-11T09:07:10.355Z,15.50
2022-12-11T09:07:44.499Z,16.40
2022-12-11T09:08:18.495Z,14.30
2022-12-11T09:08:53.797Z,13.80
2022-12-11T09:09:27.266Z,15.10
2022-12-11T09:10:02.540Z,14.70
2022-12-11T09:10:35.922Z,14.40
2022-12-11T09:11:11.764Z,16.40
2022-12-11T09:11:45.261Z,14.40
2022-12-11T09:12:18.653Z,13.10
2022-12-11T09:12:55.526Z,13.00
2022-12-11T09:13:29.191Z,13.10
2022-12-11T09:14:07.690Z,12.90
2022-12-11T09:14:41.670Z,15.00
2022-12-11T09:15:15.262Z,13.60
2022-12-11T09:15:49.065Z,14.10
2022-12-11T09:16:25.017Z,14.80
2022-12-11T09:16:58.603Z,14.90
2022-12-11T09:17:32.180Z,15.20
2022-12-11T09:18:06.077Z,14.60
2022-12-11T09:18:41.186Z,15.30
2022-12-11T09:19:15.902Z,14.50
2022-12-11T09:19:49.518Z,14.40
2022-12-11T09:20:22.899Z,15.40
2022-12-11T09:21:06.013Z,15.70
2022-12-11T09:21:39.758Z,15.20
2022-12-11T09:22:13.562Z,15.50
2022-12-11T09:22:47.239Z,15.80
2022-12-11T09:23:20.828Z,15.90
2022-12-11T09:24:00.109Z,16.30
2022-12-11T09:24:33.673Z,15.60
2022-12-11T09:25:07.852Z,16.80
2022-12-11T09:25:44.168Z,17.50
2022-12-11T09:26:19.029Z,16.60
2022-12-11T09:26:52.570Z,19.00
2022-12-11T09:27:26.248Z,16.40
2022-12-11T09:28:01.705Z,15.80
2022-12-11T09:28:45.729Z,14.50
2022-12-11T09:29:20.158Z,15.80
2022-12-11T09:29:53.818Z,15.00
2022-12-11T09:30:27.305Z,14.10
2022-12-11T09:31:01.089Z,14.70
2022-12-11T09:31:38.348Z,15.80
2022-12-11T09:32:12.523Z,14.20
2022-12-11T09:32:46.302Z,14.60